Startpagina
METAR-TAF:

METAR-TAF

Vliegvelden :

Vernal Regional Airport

Vernal, Utah, Verenigde Staten

breedte: 40-26-39N, lengte: 109-30-42W, hoogte: 1607 m

Actueel weer

Dit bericht is 25 minuten geleden gemaakt, om 02:53 UTC
Weinig wind
Temperatuur -4°C
Vochtigheid 86%
Druk 1022 hPa
Zicht: 0.4 km
onderkoelde mist

METAR: KVEL 120253Z AUTO 00000KT 1/4SM FZFG VV001 M04/M06 A3019 RMK AO2 SLP266 I1002 I3002 T10391056 50004

Tijdstip: 20:18 (03:18 UTC)

Verwachting

Dit bericht is 1 uur en het 15 minuten geleden gemaakt, om 02:03 UTC
Verwachting geldig van 12 om 02 UTC tot 12 om 24 UTC
Wind 3 kt uit variabele richting
Zicht: 10 km
Verspreide wolken op 7000 ft
Gebroken wolken op 18000 ft
Tijdelijke
van 12 om 02 UTC tot 12 om 06 UTC
Zicht: 1.2 km
Verspreide wolken op 300 ft
nevel
Van 12 om 1600 UTC
Wind 3 kt uit variabele richting
Zicht: 10 km
Verspreide wolken op 4000 ft
Gebroken wolken op 9000 ft

TAF: KVEL 120203Z 1202/1224 VRB03KT P6SM SCT070 BKN180 TEMPO 1202/1206 3/4SM BR SCT003 FM121600 VRB03KT P6SM SCT040 BKN090

Waarnemingen en weersverwachtingen van meer dan 4000 vliegvelden (METAR en TAF).

De beschikbare stations zijn de gele en rode punten op de kaart.

Ga met uw muis naar het station om de naam te zien.

Klik dan om waarnemingen en weersverwachtingen te zien.

kaart wijzigen: klik op de groene knoppen met een zwart kruis om in te zoomen, op de groene knop met een streepje om uit te zoomen of op de groene pijlen voor aangrenzende kaarten.


METAR-TAF: